Time;durP1;ratioP1;P1;durP2;ratioP2;P2;SDS_P1;SDS_P2;PMS_P1;PMS_P2;Temp;Humidity;BMP_temperature;BMP_pressure;BME280_temperature;BME280_humidity;BME280_pressure;Samples;Min_cycle;Max_cycle;Signal;HPM_P1;HPM_P2
2022/01/12 00:00:21;;;;;;;;;;;;;;;27.72;55.31;97792.73;624822;227;64980;-67
2022/01/12 00:02:49;;;;;;;;;;;;;;;27.70;57.66;97798.44;624804;227;64896;-67
2022/01/12 00:05:18;;;;;;;;;;;;;;;27.72;54.56;97798.95;624831;227;66058;-67
2022/01/12 00:07:50;;;;;;;;;;;;;;;27.70;55.29;97797.65;624796;227;66696;-67
2022/01/12 00:10:21;;;;;;;;;;;;;;;27.67;56.28;97807.94;624784;227;65016;-67
2022/01/12 00:12:48;;;;;;;;;;;;;;;27.67;57.50;97805.23;624817;227;65066;-67
2022/01/12 00:15:16;;;;;;;;;;;;;;;27.70;55.90;97797.65;624814;227;67468;-66
2022/01/12 00:17:43;;;;;;;;;;;;;;;27.70;52.03;97801.14;624786;227;67091;-66
2022/01/12 00:20:11;;;;;;;;;;;;;;;27.66;58.03;97806.34;624791;227;64890;-65
2022/01/12 00:22:40;;;;;;;;;;;;;;;27.68;53.60;97808.73;624788;227;67160;-66
2022/01/12 00:33:20;;;;;;;;;;;;;;;27.62;51.46;97820.72;624788;227;67630;-66
2022/01/12 00:35:49;;;;;;;;;;;;;;;27.62;51.33;97820.72;624829;227;65013;-66
2022/01/12 00:38:17;;;;;;;;;;;;;;;27.62;56.03;97818.02;624752;227;65568;-67
2022/01/12 00:40:47;;;;;;;;;;;;;;;27.60;57.23;97823.70;624819;227;64823;-67
2022/01/12 00:43:15;;;;;;;;;;;;;;;27.58;56.58;97820.52;624832;227;63123;-67
2022/01/12 00:45:45;;;;;;;;;;;;;;;27.54;56.77;97824.89;624763;227;67330;-67
2022/01/12 00:48:13;;;;;;;;;;;;;;;27.54;56.02;97829.48;624797;227;67015;-67
2022/01/12 00:50:41;;;;;;;;;;;;;;;27.55;57.70;97829.18;624735;226;62951;-67
2022/01/12 00:53:08;;;;;;;;;;;;;;;27.50;56.22;97829.29;624823;227;67186;-67
2022/01/12 00:55:36;;;;;;;;;;;;;;;27.50;54.43;97821.19;624873;227;66730;-67
2022/01/12 00:58:04;;;;;;;;;;;;;;;27.49;56.59;97818.77;624788;227;64918;-67
2022/01/12 01:00:32;;;;;;;;;;;;;;;27.47;56.82;97824.45;624774;227;66877;-67
2022/01/12 01:03:00;;;;;;;;;;;;;;;27.47;57.94;97820.95;624768;227;67317;-67
2022/01/12 01:05:31;;;;;;;;;;;;;;;27.42;55.71;97825.34;624776;227;62742;-67
2022/01/12 01:07:58;;;;;;;;;;;;;;;27.44;58.80;97825.84;624832;227;67067;-67
2022/01/12 01:10:48;;;;;;;;;;;;;;;27.43;58.87;97829.64;624791;227;64920;-67
2022/01/12 01:12:56;;;;;;;;;;;;;;;27.40;56.51;97830.23;622529;227;64915;-67
2022/01/12 01:26:27;;;;;;;;;;;;;;;27.37;59.12;97830.02;621342;227;68132;-67
2022/01/12 01:28:54;;;;;;;;;;;;;;;27.32;58.15;97836.30;624760;227;64990;-67
2022/01/12 01:31:29;;;;;;;;;;;;;;;27.31;58.25;97836.58;624778;227;65218;-67
2022/01/12 01:33:51;;;;;;;;;;;;;;;27.30;59.31;97829.58;624597;226;65568;-67
2022/01/12 01:36:19;;;;;;;;;;;;;;;27.31;60.49;97842.80;624789;227;62874;-67
2022/01/12 01:38:47;;;;;;;;;;;;;;;27.28;58.91;97834.46;624759;227;67756;-67
2022/01/12 01:41:14;;;;;;;;;;;;;;;27.29;58.51;97841.48;624841;227;66951;-67
2022/01/12 01:44:06;;;;;;;;;;;;;;;27.27;59.81;97835.57;624778;227;62649;-67
2022/01/12 01:54:29;;;;;;;;;;;;;;;27.25;58.26;97849.34;624753;227;64980;-66
2022/01/12 01:56:56;;;;;;;;;;;;;;;27.22;57.90;97841.83;624844;227;67532;-66
2022/01/12 01:59:24;;;;;;;;;;;;;;;27.21;59.22;97846.43;624769;227;63704;-66
2022/01/12 02:01:52;;;;;;;;;;;;;;;27.20;52.58;97841.31;624777;227;67716;-66
2022/01/12 02:04:20;;;;;;;;;;;;;;;27.23;53.74;97836.16;624757;227;67040;-66
2022/01/12 02:06:47;;;;;;;;;;;;;;;27.22;58.52;97845.33;624795;227;62573;-66
2022/01/12 02:09:16;;;;;;;;;;;;;;;27.19;54.79;97845.12;624750;227;64787;-66
2022/01/12 02:11:52;;;;;;;;;;;;;;;27.19;56.06;97845.91;624694;226;45423;-66
2022/01/12 02:14:21;;;;;;;;;;;;;;;27.17;55.87;97840.03;624795;227;65710;-66
2022/01/12 02:16:59;;;;;;;;;;;;;;;27.19;57.55;97848.61;624807;227;67300;-66
2022/01/12 02:20:13;;;;;;;;;;;;;;;27.15;56.87;97844.08;624324;226;65134;-66
2022/01/12 02:35:51;;;;;;;;;;;;;;;27.12;57.22;97860.83;624775;227;67494;-65
2022/01/12 02:41:02;;;;;;;;;;;;;;;27.08;54.06;97868.70;624786;227;66980;-65
2022/01/12 02:43:39;;;;;;;;;;;;;;;27.08;52.21;97863.31;624803;227;66842;-65
2022/01/12 02:53:56;;;;;;;;;;;;;;;27.04;57.92;97870.39;624758;227;65151;-65
2022/01/12 02:56:27;;;;;;;;;;;;;;;27.05;53.17;97868.49;624770;227;67023;-65
2022/01/12 02:58:58;;;;;;;;;;;;;;;27.04;54.42;97869.56;624787;227;67121;-65
2022/01/12 03:04:05;;;;;;;;;;;;;;;27.02;55.15;97867.17;624856;227;67736;-65
2022/01/12 03:06:37;;;;;;;;;;;;;;;27.02;55.24;97872.57;624818;227;67040;-65
2022/01/12 03:09:04;;;;;;;;;;;;;;;26.98;54.54;97869.66;624762;226;63502;-65
2022/01/12 03:11:32;;;;;;;;;;;;;;;26.97;53.88;97869.94;624750;227;67153;-65
2022/01/12 03:14:01;;;;;;;;;;;;;;;26.96;56.08;97865.64;624718;226;45712;-65
2022/01/12 03:16:30;;;;;;;;;;;;;;;26.96;54.34;97863.74;624796;227;65631;-65
2022/01/12 03:19:01;;;;;;;;;;;;;;;26.96;53.77;97869.14;624883;226;44086;-65
2022/01/12 03:21:30;;;;;;;;;;;;;;;26.93;53.28;97872.42;621341;227;67955;-65
2022/01/12 03:23:59;;;;;;;;;;;;;;;26.93;52.87;97871.62;624777;227;65414;-65
2022/01/12 03:26:28;;;;;;;;;;;;;;;26.92;54.01;97872.69;624819;227;67920;-65
2022/01/12 03:28:56;;;;;;;;;;;;;;;26.92;55.75;97867.30;624852;227;66679;-65
2022/01/12 03:31:26;;;;;;;;;;;;;;;26.91;53.07;97873.80;621346;227;66419;-65
2022/01/12 03:34:07;;;;;;;;;;;;;;;26.89;55.93;97884.06;624816;227;66944;-66
2022/01/12 04:09:37;;;;;;;;;;;;;;;26.71;56.52;97897.22;624773;227;63783;-65
2022/01/12 04:12:05;;;;;;;;;;;;;;;26.68;55.49;97900.50;624799;227;67818;-65
2022/01/12 04:14:33;;;;;;;;;;;;;;;26.67;54.52;97904.27;624768;227;66983;-65
2022/01/12 04:17:00;;;;;;;;;;;;;;;26.68;57.48;97916.67;624854;227;63189;-65
2022/01/12 04:19:28;;;;;;;;;;;;;;;26.67;56.35;97917.75;624787;227;65047;-65
2022/01/12 04:22:05;;;;;;;;;;;;;;;26.68;57.05;97916.67;624788;227;67221;-66
2022/01/12 04:24:25;;;;;;;;;;;;;;;26.66;58.89;97918.84;624531;226;65337;-65
2022/01/12 04:26:52;;;;;;;;;;;;;;;26.66;57.62;97928.83;624800;227;67152;-66
2022/01/12 04:29:20;;;;;;;;;;;;;;;26.62;55.83;97930.48;624828;227;67062;-66
2022/01/12 04:31:47;;;;;;;;;;;;;;;26.62;53.96;97933.17;624836;227;62812;-65
2022/01/12 04:34:15;;;;;;;;;;;;;;;26.61;57.47;97937.77;624767;227;65669;-66
2022/01/12 04:36:42;;;;;;;;;;;;;;;26.60;54.75;97938.87;624803;227;67192;-67
2022/01/12 04:39:10;;;;;;;;;;;;;;;26.62;56.11;97939.36;624757;227;65199;-67
2022/01/12 04:41:37;;;;;;;;;;;;;;;26.59;57.99;97944.53;624798;227;65757;-67
2022/01/12 04:44:07;;;;;;;;;;;;;;;26.60;55.83;97946.13;624853;227;67557;-67
2022/01/12 04:47:03;;;;;;;;;;;;;;;26.56;53.67;97949.40;624765;227;65106;-67
2022/01/12 04:49:47;;;;;;;;;;;;;;;26.59;55.32;97944.53;624487;226;67834;-68
2022/01/12 04:51:52;;;;;;;;;;;;;;;26.56;57.96;97948.59;624188;226;65858;-67
2022/01/12 04:54:20;;;;;;;;;;;;;;;26.55;55.26;97961.28;624765;227;62922;-67
2022/01/12 04:56:47;;;;;;;;;;;;;;;26.54;57.84;97959.66;624853;227;67196;-68
2022/01/12 04:59:16;;;;;;;;;;;;;;;26.50;57.14;97955.11;624772;227;67942;-67
2022/01/12 05:01:51;;;;;;;;;;;;;;;26.52;59.27;97959.16;624792;227;65784;-68
2022/01/12 05:10:00;;;;;;;;;;;;;;;26.52;55.71;97971.84;624779;227;63746;-66
2022/01/12 05:15:07;;;;;;;;;;;;;;;26.47;58.53;97979.94;624844;227;67833;-66
2022/01/12 05:17:29;;;;;;;;;;;;;;;26.43;59.72;97982.38;624626;226;62897;-66
2022/01/12 05:19:57;;;;;;;;;;;;;;;26.45;53.80;97988.29;624796;227;66921;-66
2022/01/12 05:22:24;;;;;;;;;;;;;;;26.45;58.85;97985.59;624798;227;64834;-66
2022/01/12 05:24:52;;;;;;;;;;;;;;;26.42;53.42;97986.16;624745;227;64981;-67
2022/01/12 05:27:20;;;;;;;;;;;;;;;26.45;55.76;97998.27;624838;227;67525;-66
2022/01/12 05:29:47;;;;;;;;;;;;;;;26.44;57.97;97996.67;624798;227;64961;-67
2022/01/12 05:32:15;;;;;;;;;;;;;;;26.43;56.15;98001.23;624781;227;65711;-66
2022/01/12 05:34:44;;;;;;;;;;;;;;;26.42;54.85;98004.23;624766;227;64460;-66
2022/01/12 05:37:11;;;;;;;;;;;;;;;26.41;58.25;98008.00;624786;227;66893;-66
2022/01/12 05:39:39;;;;;;;;;;;;;;;26.41;55.09;98013.39;624784;227;65089;-66
2022/01/12 05:42:07;;;;;;;;;;;;;;;26.39;56.92;98012.89;624844;227;67925;-66
2022/01/12 05:44:40;;;;;;;;;;;;;;;26.37;58.27;98020.44;624696;226;45643;-66
2022/01/12 05:47:08;;;;;;;;;;;;;;;26.37;53.26;98015.85;624755;226;62393;-67
2022/01/12 05:49:36;;;;;;;;;;;;;;;26.37;57.23;98018.55;624734;227;64227;-66
2022/01/12 05:52:05;;;;;;;;;;;;;;;26.34;59.04;98019.91;625478;226;43981;-67
2022/01/12 05:54:33;;;;;;;;;;;;;;;26.32;60.05;98027.47;625911;226;62881;-67
2022/01/12 05:57:00;;;;;;;;;;;;;;;26.33;58.57;98033.69;625845;226;67994;-67
2022/01/12 05:59:28;;;;;;;;;;;;;;;26.29;59.39;98029.93;625923;226;67083;-67
2022/01/12 06:01:56;;;;;;;;;;;;;;;26.27;61.01;98041.00;625847;226;65207;-67
2022/01/12 06:04:23;;;;;;;;;;;;;;;26.29;61.21;98038.02;625903;226;67216;-67
2022/01/12 06:06:52;;;;;;;;;;;;;;;26.28;59.02;98041.80;626017;224;64418;-67
2022/01/12 06:09:20;;;;;;;;;;;;;;;26.29;57.65;98049.59;625931;226;65100;-67
2022/01/12 06:11:47;;;;;;;;;;;;;;;26.30;57.63;98051.22;625890;226;64540;-68
2022/01/12 06:14:19;;;;;;;;;;;;;;;26.29;56.45;98059.57;625884;226;67817;-68
2022/01/12 06:16:46;;;;;;;;;;;;;;;26.30;57.45;98056.61;625836;225;65926;-68
2022/01/12 06:19:16;;;;;;;;;;;;;;;26.30;58.98;98067.39;615396;226;66343;-68
2022/01/12 06:21:45;;;;;;;;;;;;;;;26.30;57.70;98067.39;625724;226;43710;-67
2022/01/12 06:24:14;;;;;;;;;;;;;;;26.29;57.53;98063.06;625706;226;44974;-67
2022/01/12 06:26:43;;;;;;;;;;;;;;;26.29;55.23;98070.34;625915;226;67166;-66
2022/01/12 06:31:42;;;;;;;;;;;;;;;26.28;57.51;98080.33;625893;226;62744;-66
2022/01/12 06:34:10;;;;;;;;;;;;;;;26.29;55.72;98079.23;625758;226;65284;-67
2022/01/12 06:36:37;;;;;;;;;;;;;;;26.29;58.57;98081.92;625937;226;67091;-66
2022/01/12 06:39:09;;;;;;;;;;;;;;;26.30;55.44;98088.95;625882;226;65724;-66
2022/01/12 06:41:38;;;;;;;;;;;;;;;26.31;59.44;98085.16;625929;226;68246;-66
2022/01/12 06:44:06;;;;;;;;;;;;;;;26.32;54.56;98086.75;625884;226;67040;-68
2022/01/12 06:46:35;;;;;;;;;;;;;;;26.31;55.79;98087.84;625955;226;63728;-66
2022/01/12 06:49:03;;;;;;;;;;;;;;;26.32;58.18;98097.53;625958;226;67165;-66
2022/01/12 06:51:30;;;;;;;;;;;;;;;26.34;58.32;98098.06;625261;226;64934;-66
2022/01/12 06:54:00;;;;;;;;;;;;;;;26.32;59.25;98086.75;624773;227;65748;-67
2022/01/12 06:56:28;;;;;;;;;;;;;;;26.33;58.02;98101.86;624549;227;67139;-66
2022/01/12 06:58:57;;;;;;;;;;;;;;;26.37;59.19;98102.09;622543;227;63875;-65
2022/01/12 07:01:32;;;;;;;;;;;;;;;26.37;57.13;98106.69;617640;229;65002;-67
2022/01/12 07:04:01;;;;;;;;;;;;;;;26.40;59.91;98103.42;617426;229;67106;-65
2022/01/12 07:06:31;;;;;;;;;;;;;;;26.41;58.85;98113.11;617390;228;44091;-66
2022/01/12 07:09:01;;;;;;;;;;;;;;;26.43;57.31;98114.44;617378;229;65738;-67
2022/01/12 07:11:30;;;;;;;;;;;;;;;26.44;60.21;98115.27;617236;228;44514;-66
2022/01/12 07:13:59;;;;;;;;;;;;;;;26.45;61.06;98122.27;617535;228;44357;-65
2022/01/12 07:16:27;;;;;;;;;;;;;;;26.48;60.26;98129.78;617652;229;65385;-63
2022/01/12 07:18:59;;;;;;;;;;;;;;;26.48;61.39;98121.70;617562;229;66969;-68
2022/01/12 07:21:25;;;;;;;;;;;;;;;26.42;52.02;98128.21;617601;228;64688;-66
2022/01/12 07:23:55;;;;;;;;;;;;;;;26.52;56.95;98133.58;617583;229;65730;-68
2022/01/12 07:26:23;;;;;;;;;;;;;;;26.51;52.19;98131.95;617545;229;66997;-68
2022/01/12 07:28:51;;;;;;;;;;;;;;;26.49;55.13;98129.52;617637;229;67313;-67
2022/01/12 07:31:18;;;;;;;;;;;;;;;26.60;56.20;98130.28;617616;229;63614;-67
2022/01/12 07:33:45;;;;;;;;;;;;;;;26.65;56.53;98130.22;617525;229;66994;-66
2022/01/12 07:36:13;;;;;;;;;;;;;;;26.70;56.76;98137.47;617594;229;66721;-67
2022/01/12 07:38:41;;;;;;;;;;;;;;;26.75;57.29;98140.13;617629;229;65174;-66
2022/01/12 07:41:08;;;;;;;;;;;;;;;26.79;56.99;98141.16;617612;229;67093;-66
2022/01/12 07:43:36;;;;;;;;;;;;;;;26.83;58.27;98142.23;617626;229;66998;-65
2022/01/12 07:46:04;;;;;;;;;;;;;;;26.85;56.75;98142.76;617678;229;65118;-69
2022/01/12 07:48:31;;;;;;;;;;;;;;;26.88;57.20;98149.48;617569;229;66566;-68
2022/01/12 07:50:59;;;;;;;;;;;;;;;26.88;59.85;98144.89;617054;229;66725;-69
2022/01/12 07:53:29;;;;;;;;;;;;;;;26.92;59.67;98142.42;615391;230;64958;-69
2022/01/12 07:55:57;;;;;;;;;;;;;;;26.97;58.94;98147.78;615309;230;67074;-68
2022/01/12 07:58:25;;;;;;;;;;;;;;;26.98;59.18;98149.37;615287;230;64443;-67
2022/01/12 08:00:52;;;;;;;;;;;;;;;26.99;59.63;98154.50;615319;230;64825;-66
2022/01/12 08:03:20;;;;;;;;;;;;;;;27.01;59.58;98159.62;615347;230;66801;-65
2022/01/12 08:05:49;;;;;;;;;;;;;;;26.99;58.46;98167.19;615398;230;64544;-68
2022/01/12 08:08:16;;;;;;;;;;;;;;;26.98;58.52;98161.00;615363;230;65080;-68
2022/01/12 08:10:44;;;;;;;;;;;;;;;27.01;57.68;98165.02;615403;230;66992;-68
2022/01/12 08:13:11;;;;;;;;;;;;;;;27.03;59.42;98168.22;615408;230;67201;-68
2022/01/12 08:15:39;;;;;;;;;;;;;;;27.04;58.94;98167.16;615273;230;65045;-68
2022/01/12 08:18:07;;;;;;;;;;;;;;;27.08;57.30;98172.78;615316;228;67020;-64
2022/01/12 08:20:35;;;;;;;;;;;;;;;27.08;58.67;98168.18;615382;230;65085;-65
2022/01/12 08:23:03;;;;;;;;;;;;;;;27.10;58.42;98159.81;615201;230;63039;-65
2022/01/12 08:25:30;;;;;;;;;;;;;;;27.10;58.12;98155.22;615312;230;64784;-66
2022/01/12 08:27:58;;;;;;;;;;;;;;;27.12;58.31;98161.14;609300;230;69951;-65
2022/01/12 08:30:29;;;;;;;;;;;;;;;27.12;57.36;98165.71;615281;230;65053;-65
2022/01/12 08:32:55;;;;;;;;;;;;;;;27.13;57.47;98172.73;615344;230;67075;-64
2022/01/12 08:35:23;;;;;;;;;;;;;;;27.13;56.93;98170.84;609301;230;66794;-65
2022/01/12 08:37:52;;;;;;;;;;;;;;;27.15;57.58;98167.88;615301;230;63807;-62
2022/01/12 08:40:20;;;;;;;;;;;;;;;27.16;57.51;98170.30;615386;230;64849;-65
2022/01/12 08:42:48;;;;;;;;;;;;;;;27.16;56.54;98161.38;615325;230;67278;-64
2022/01/12 08:45:17;;;;;;;;;;;;;;;27.18;57.02;98160.03;615337;230;64886;-69
2022/01/12 08:47:45;;;;;;;;;;;;;;;27.21;55.54;98167.55;615336;230;67631;-64
2022/01/12 08:50:13;;;;;;;;;;;;;;;27.23;57.14;98159.98;615360;230;67282;-68
2022/01/12 08:52:47;;;;;;;;;;;;;;;27.22;56.50;98166.45;615239;229;65008;-68
2022/01/12 08:55:16;;;;;;;;;;;;;;;27.22;56.62;98168.36;615323;230;64648;-66
2022/01/12 08:57:44;;;;;;;;;;;;;;;27.22;55.85;98168.36;615285;230;67231;-69
2022/01/12 09:00:13;;;;;;;;;;;;;;;27.23;56.15;98162.69;615396;230;65043;-69
2022/01/12 09:02:41;;;;;;;;;;;;;;;27.25;56.70;98170.48;615363;230;66855;-65
2022/01/12 09:05:14;;;;;;;;;;;;;;;27.25;54.82;98166.98;615340;230;64666;-66
2022/01/12 09:07:45;;;;;;;;;;;;;;;27.26;55.12;98155.92;615342;230;44802;-66
2022/01/12 09:10:12;;;;;;;;;;;;;;;27.29;54.72;98157.25;615337;230;67498;-64
2022/01/12 09:12:40;;;;;;;;;;;;;;;27.31;55.98;98152.34;615371;230;67018;-68
2022/01/12 09:15:08;;;;;;;;;;;;;;;27.33;54.99;98144.78;615381;230;62738;-68
2022/01/12 09:17:36;;;;;;;;;;;;;;;27.32;55.33;98148.58;615374;230;67269;-65
2022/01/12 09:20:04;;;;;;;;;;;;;;;27.34;54.83;98149.91;615316;230;67101;-66
2022/01/12 09:22:32;;;;;;;;;;;;;;;27.34;54.97;98151.80;615331;230;65134;-65
2022/01/12 09:24:59;;;;;;;;;;;;;;;27.36;55.14;98147.70;615399;230;67175;-65
2022/01/12 09:27:26;;;;;;;;;;;;;;;27.38;55.69;98150.92;615329;228;67047;-65
2022/01/12 09:29:54;;;;;;;;;;;;;;;27.42;56.02;98148.48;615341;230;64985;-65
2022/01/12 09:32:21;;;;;;;;;;;;;;;27.42;54.69;98153.88;615389;230;67028;-66
2022/01/12 09:34:49;;;;;;;;;;;;;;;27.39;55.59;98152.55;615281;230;66886;-65
2022/01/12 09:37:16;;;;;;;;;;;;;;;27.43;55.72;98155.48;615347;230;65084;-65
2022/01/12 09:39:44;;;;;;;;;;;;;;;27.41;56.96;98149.55;615358;230;67243;-64
2022/01/12 09:42:11;;;;;;;;;;;;;;;27.43;55.68;98155.48;615340;230;66878;-65
2022/01/12 09:44:46;;;;;;;;;;;;;;;27.40;56.73;98143.36;615342;230;62861;-64
2022/01/12 09:47:09;;;;;;;;;;;;;;;27.38;55.92;98139.33;615073;230;69431;-67
2022/01/12 09:49:37;;;;;;;;;;;;;;;27.39;55.17;98146.33;615294;230;66658;-66
2022/01/12 09:52:05;;;;;;;;;;;;;;;27.40;55.54;98142.55;615329;229;64918;-68
2022/01/12 09:54:32;;;;;;;;;;;;;;;27.40;56.89;98142.55;615379;230;67084;-68
2022/01/12 09:57:01;;;;;;;;;;;;;;;27.40;55.75;98143.36;615056;230;44721;-72
2022/01/12 09:59:29;;;;;;;;;;;;;;;27.40;56.53;98146.05;615345;230;62871;-68
2022/01/12 10:01:57;;;;;;;;;;;;;;;27.40;56.04;98145.25;615293;230;64911;-68
2022/01/12 10:04:26;;;;;;;;;;;;;;;27.43;55.92;98139.28;615394;228;66948;-67
2022/01/12 10:06:54;;;;;;;;;;;;;;;27.41;56.41;98146.85;615344;230;65055;-66
2022/01/12 10:09:25;;;;;;;;;;;;;;;27.42;56.37;98149.28;615324;230;64845;-67
2022/01/12 10:11:53;;;;;;;;;;;;;;;27.41;56.14;98149.55;614454;230;66889;-68
2022/01/12 10:14:22;;;;;;;;;;;;;;;27.40;56.28;98143.36;615395;230;63844;-68
2022/01/12 10:16:50;;;;;;;;;;;;;;;27.39;56.69;98152.55;615305;230;64618;-68
2022/01/12 10:19:19;;;;;;;;;;;;;;;27.39;55.01;98147.16;615359;228;67054;-69
2022/01/12 10:21:48;;;;;;;;;;;;;;;27.39;55.29;98144.45;615085;228;65207;-69
2022/01/12 10:24:18;;;;;;;;;;;;;;;27.37;55.70;98148.53;615242;230;65161;-68
2022/01/12 10:26:46;;;;;;;;;;;;;;;27.37;55.50;98152.03;615293;230;68140;-68
2022/01/12 10:29:15;;;;;;;;;;;;;;;27.35;55.25;98150.70;615297;230;65677;-69
2022/01/12 10:31:50;;;;;;;;;;;;;;;27.36;55.78;98152.30;615351;230;64963;-69
2022/01/12 10:34:19;;;;;;;;;;;;;;;27.34;54.72;98152.60;615317;230;66969;-68
2022/01/12 10:36:47;;;;;;;;;;;;;;;27.35;56.17;98156.09;615331;230;64951;-68
2022/01/12 10:39:16;;;;;;;;;;;;;;;27.40;53.22;98158.75;615316;230;67063;-68
2022/01/12 10:41:53;;;;;;;;;;;;;;;27.37;55.02;98157.42;615074;230;67162;-68
2022/01/12 10:44:24;;;;;;;;;;;;;;;27.35;54.33;98148.80;615376;230;65116;-67
2022/01/12 10:46:53;;;;;;;;;;;;;;;27.37;54.94;98145.83;615325;230;67094;-67
2022/01/12 10:49:21;;;;;;;;;;;;;;;27.40;55.15;98143.36;613543;230;66901;-68
2022/01/12 10:51:56;;;;;;;;;;;;;;;27.40;54.66;98143.36;615197;229;62615;-67
2022/01/12 10:54:24;;;;;;;;;;;;;;;27.40;54.99;98140.66;615325;230;67238;-67
2022/01/12 10:56:52;;;;;;;;;;;;;;;27.41;55.44;98144.16;615370;230;67086;-67
2022/01/12 10:59:21;;;;;;;;;;;;;;;27.44;55.89;98144.38;615316;230;65009;-65
2022/01/12 11:01:48;;;;;;;;;;;;;;;27.41;55.42;98141.45;615312;230;66947;-65
2022/01/12 11:04:16;;;;;;;;;;;;;;;27.39;56.43;98140.92;615132;230;66710;-65
2022/01/12 11:06:44;;;;;;;;;;;;;;;27.41;55.02;98144.95;615227;228;62711;-67
2022/01/12 11:09:11;;;;;;;;;;;;;;;27.40;54.85;98135.25;615317;230;64747;-64
2022/01/12 11:11:38;;;;;;;;;;;;;;;27.39;55.60;98135.53;615349;230;65377;-65
2022/01/12 11:14:06;;;;;;;;;;;;;;;27.35;55.20;98134.50;615218;230;62828;-65
2022/01/12 11:16:33;;;;;;;;;;;;;;;27.34;55.14;98130.20;615329;230;64828;-66
2022/01/12 11:19:02;;;;;;;;;;;;;;;27.35;54.74;98138.00;615286;228;64927;-65
2022/01/12 11:21:41;;;;;;;;;;;;;;;27.36;55.12;98130.70;615277;230;65028;-66
2022/01/12 11:24:13;;;;;;;;;;;;;;;27.37;54.38;98143.13;615346;228;67080;-67
2022/01/12 11:26:42;;;;;;;;;;;;;;;27.36;54.45;98136.91;615332;230;64908;-66
2022/01/12 11:29:10;;;;;;;;;;;;;;;27.37;55.09;98132.33;614612;230;62967;-66
2022/01/12 11:31:39;;;;;;;;;;;;;;;27.33;55.05;98137.48;615367;230;64528;-66
2022/01/12 11:34:08;;;;;;;;;;;;;;;27.33;55.37;98142.88;615352;230;66820;-66
2022/01/12 11:36:36;;;;;;;;;;;;;;;27.36;54.52;98136.91;614938;228;65067;-66
2022/01/12 11:39:05;;;;;;;;;;;;;;;27.33;54.87;98142.08;615447;230;67464;-68
2022/01/12 11:41:34;;;;;;;;;;;;;;;27.36;54.63;98141.50;615390;228;66999;-67
2022/01/12 11:44:03;;;;;;;;;;;;;;;27.34;55.02;98141.80;615263;230;65070;-66
2022/01/12 11:46:45;;;;;;;;;;;;;;;27.36;54.42;98149.59;615395;230;67426;-66
2022/01/12 11:49:12;;;;;;;;;;;;;;;27.34;54.93;98147.20;615347;230;67026;-66
2022/01/12 11:51:44;;;;;;;;;;;;;;;27.33;54.89;98147.48;617034;229;63043;-66
2022/01/12 11:54:16;;;;;;;;;;;;;;;27.36;55.26;98155.00;618787;227;67014;-65
2022/01/12 11:56:53;;;;;;;;;;;;;;;27.35;55.05;98162.30;618724;229;64580;-64
2022/01/12 11:59:22;;;;;;;;;;;;;;;27.34;54.86;98157.20;618781;229;65060;-66
2022/01/12 12:01:50;;;;;;;;;;;;;;;27.35;54.35;98162.30;618766;229;68130;-66
2022/01/12 12:04:22;;;;;;;;;;;;;;;27.34;54.90;98158.00;618644;229;65425;-66
2022/01/12 12:06:50;;;;;;;;;;;;;;;27.37;54.15;98164.73;618731;229;64934;-67
2022/01/12 12:09:18;;;;;;;;;;;;;;;27.34;54.96;98163.40;618775;229;66866;-67
2022/01/12 12:11:51;;;;;;;;;;;;;;;27.35;54.76;98166.89;618712;229;64722;-67
2022/01/12 12:14:19;;;;;;;;;;;;;;;27.37;55.24;98165.52;618698;229;65016;-66
2022/01/12 12:16:47;;;;;;;;;;;;;;;27.38;55.10;98172.52;618776;229;66804;-66
2022/01/12 12:19:15;;;;;;;;;;;;;;;27.34;53.74;98160.70;618698;229;64540;-69
2022/01/12 12:21:43;;;;;;;;;;;;;;;27.37;54.90;98183.62;618756;227;63057;-65
2022/01/12 12:24:15;;;;;;;;;;;;;;;27.40;54.72;98164.15;618629;228;65023;-66
2022/01/12 12:26:45;;;;;;;;;;;;;;;27.42;54.92;98178.17;618703;229;67296;-66
2022/01/12 12:29:14;;;;;;;;;;;;;;;27.42;55.30;98178.17;618580;228;62949;-66
2022/01/12 12:31:43;;;;;;;;;;;;;;;27.40;53.69;98180.34;618734;229;67232;-66
2022/01/12 12:34:10;;;;;;;;;;;;;;;27.44;53.03;98179.47;618672;228;64895;-67
2022/01/12 12:36:38;;;;;;;;;;;;;;;27.43;54.43;98179.77;618764;229;63766;-67
2022/01/12 12:39:06;;;;;;;;;;;;;;;27.44;54.46;98184.07;618671;229;64893;-67
2022/01/12 12:41:42;;;;;;;;;;;;;;;27.40;56.45;98185.75;618784;229;67170;-66
2022/01/12 12:44:22;;;;;;;;;;;;;;;27.46;55.89;98184.59;618722;229;42961;-65
2022/01/12 12:46:50;;;;;;;;;;;;;;;27.43;56.10;98183.27;618442;229;64341;-66
2022/01/12 12:49:23;;;;;;;;;;;;;;;27.45;55.31;98180.30;618807;228;48424;-67
2022/01/12 12:51:54;;;;;;;;;;;;;;;27.45;54.45;98183.00;618486;227;63667;-68
2022/01/12 12:54:21;;;;;;;;;;;;;;;27.43;54.84;98190.58;618437;229;67298;-67
2022/01/12 12:56:52;;;;;;;;;;;;;;;27.45;54.56;98191.10;618699;229;67110;-67
2022/01/12 12:59:20;;;;;;;;;;;;;;;27.43;55.34;98185.97;618638;228;64900;-68
2022/01/12 13:01:47;;;;;;;;;;;;;;;27.47;54.85;98191.59;618721;229;64933;-67
2022/01/12 13:04:16;;;;;;;;;;;;;;;27.47;55.03;98197.00;618727;229;64765;-68
2022/01/12 13:06:44;;;;;;;;;;;;;;;27.46;54.01;98190.00;618627;229;65133;-68
2022/01/12 13:09:13;;;;;;;;;;;;;;;27.48;55.00;98190.52;618722;229;66815;-68
2022/01/12 13:11:46;;;;;;;;;;;;;;;27.47;55.18;98197.00;618707;229;66748;-68
2022/01/12 13:14:15;;;;;;;;;;;;;;;27.48;54.79;98190.52;618738;227;64744;-66
2022/01/12 13:16:48;;;;;;;;;;;;;;;27.51;55.00;98198.05;618739;229;63793;-65
2022/01/12 13:19:34;;;;;;;;;;;;;;;27.52;54.43;98199.65;618811;229;46568;-66
2022/01/12 13:21:49;;;;;;;;;;;;;;;27.52;54.70;98199.65;617664;229;65384;-66
2022/01/12 13:24:17;;;;;;;;;;;;;;;27.54;54.86;98199.38;618476;229;66909;-65
2022/01/12 13:26:44;;;;;;;;;;;;;;;27.54;54.92;98208.28;618728;229;66806;-67
2022/01/12 13:29:13;;;;;;;;;;;;;;;27.54;52.61;98202.08;618697;229;64933;-67
2022/01/12 13:31:40;;;;;;;;;;;;;;;27.54;54.78;98202.08;618786;229;66988;-65
2022/01/12 13:34:14;;;;;;;;;;;;;;;27.53;55.34;98206.68;618759;229;66498;-67
2022/01/12 13:36:37;;;;;;;;;;;;;;;27.54;55.42;98208.28;618407;229;65133;-69
2022/01/12 13:39:06;;;;;;;;;;;;;;;27.55;54.45;98209.87;618715;229;66742;-70
2022/01/12 13:41:35;;;;;;;;;;;;;;;27.59;54.47;98215.53;618770;229;64967;-63
2022/01/12 13:44:11;;;;;;;;;;;;;;;27.62;55.32;98218.45;618697;229;64910;-66
2022/01/12 13:46:43;;;;;;;;;;;;;;;27.64;55.00;98218.98;618728;227;66714;-65
2022/01/12 13:51:54;;;;;;;;;;;;;;;27.68;55.16;98220.01;618654;229;65181;-64
2022/01/12 13:54:23;;;;;;;;;;;;;;;27.70;55.74;98218.94;618288;228;64252;-64
2022/01/12 13:56:52;;;;;;;;;;;;;;;27.68;54.22;98211.91;618755;229;66644;-64
2022/01/12 13:59:20;;;;;;;;;;;;;;;27.70;54.72;98217.03;618715;229;65233;-67
2022/01/12 14:01:48;;;;;;;;;;;;;;;27.71;54.95;98212.44;618757;229;64441;-67
2022/01/12 14:04:36;;;;;;;;;;;;;;;27.74;54.78;98219.95;618692;229;66839;-67
2022/01/12 14:07:06;;;;;;;;;;;;;;;27.73;55.32;98221.06;618655;228;65050;-69
2022/01/12 14:09:39;;;;;;;;;;;;;;;27.75;56.01;98232.39;618698;228;71839;-69
2022/01/12 14:12:09;;;;;;;;;;;;;;;27.76;55.22;98228.59;618521;229;66804;-69
2022/01/12 14:14:57;;;;;;;;;;;;;;;27.76;55.49;98231.29;618788;229;65012;-69
2022/01/12 14:17:32;;;;;;;;;;;;;;;27.78;55.22;98231.81;618794;229;66904;-68
2022/01/12 14:20:01;;;;;;;;;;;;;;;27.78;55.65;98235.31;618604;228;66890;-70
2022/01/12 14:22:29;;;;;;;;;;;;;;;27.79;54.44;98233.41;618728;229;62767;-70
2022/01/12 14:24:58;;;;;;;;;;;;;;;27.79;55.65;98226.11;618730;229;64781;-68
2022/01/12 14:27:27;;;;;;;;;;;;;;;27.82;55.33;98232.87;618679;229;66868;-73
2022/01/12 14:29:54;;;;;;;;;;;;;;;27.82;54.64;98230.97;618311;229;65086;-70
2022/01/12 14:32:22;;;;;;;;;;;;;;;27.82;55.34;98224.77;618660;229;66921;-70
2022/01/12 14:34:50;;;;;;;;;;;;;;;27.84;55.32;98222.59;618628;229;66776;-72
2022/01/12 14:37:17;;;;;;;;;;;;;;;27.86;55.36;98226.62;618728;229;65000;-67